Time,TemperatureF,DewpointF,PressureIn,WindDirection,WindDirectionDegrees,WindSpeedMPH,WindSpeedGustMPH,Humidity,HourlyPrecipIn,Conditions,Clouds,dailyrainin,SoftwareType,DateUTC
2013-12-20 00:12:00,54.0,48.0,-100.00,SSW,205,16.0,21.0,80,-99.99,,,-99.99,,2013-12-20 06:12:00,
2013-12-20 00:22:00,54.0,48.0,-100.00,SSW,205,16.0,21.0,80,-99.99,,,-99.99,,2013-12-20 06:22:00,
2013-12-20 00:52:00,55.0,49.0,-100.00,South,190,14.0,21.0,80,-99.99,,,-99.99,,2013-12-20 06:52:00,
2013-12-20 01:12:00,55.0,49.0,-100.00,SSW,200,18.0,24.0,80,-99.99,,,-99.99,,2013-12-20 07:12:00,
2013-12-20 01:22:00,55.0,49.0,-100.00,SSW,200,18.0,24.0,80,-99.99,,,-99.99,,2013-12-20 07:22:00,
2013-12-20 01:52:00,55.0,49.0,-100.00,South,190,14.0,18.0,81,-99.99,,,-99.99,,2013-12-20 07:52:00,
2013-12-20 02:22:00,55.0,50.0,-100.00,South,190,16.0,19.0,82,-99.99,,,-99.99,,2013-12-20 08:22:00,
2013-12-20 02:52:00,55.0,50.0,-100.00,South,185,18.0,21.0,83,-99.99,,,-99.99,,2013-12-20 08:52:00,
2013-12-20 03:22:00,56.0,51.0,-100.00,SSW,205,14.0,18.0,84,-99.99,,,-99.99,,2013-12-20 09:22:00,
2013-12-20 03:53:00,56.0,51.0,-100.00,SSW,195,17.0,21.0,84,-99.99,,,-99.99,,2013-12-20 09:53:00,
2013-12-20 04:23:00,56.0,52.0,-100.00,South,185,16.0,19.0,85,-99.99,,,-99.99,,2013-12-20 10:23:00,
2013-12-20 04:53:00,56.0,52.0,-100.00,South,190,14.0,21.0,85,-99.99,,,-99.99,,2013-12-20 10:53:00,
2013-12-20 05:22:00,56.0,52.0,-100.00,SSW,200,16.0,23.0,86,-99.99,,,-99.99,,2013-12-20 11:22:00,
2013-12-20 05:53:00,57.0,53.0,-100.00,SSW,200,14.0,16.0,87,-99.99,,,-99.99,,2013-12-20 11:53:00,
2013-12-20 06:23:00,57.0,53.0,-100.00,SSW,195,12.0,14.0,88,-99.99,,,-99.99,,2013-12-20 12:23:00,
2013-12-20 06:52:00,56.0,54.0,-100.00,SSW,195,14.0,19.0,91,-99.99,,,-99.99,,2013-12-20 12:52:00,
2013-12-20 07:01:00,56.0,54.0,-100.00,SSW,195,14.0,19.0,91,-99.99,,,-99.99,,2013-12-20 13:01:00,
2013-12-20 07:11:00,56.0,54.0,-100.00,SSW,195,14.0,19.0,91,-99.99,,,-99.99,,2013-12-20 13:11:00,
2013-12-20 09:22:00,58.0,56.0,-100.00,South,185,14.0,21.0,92,-99.99,,,-99.99,,2013-12-20 15:22:00,
2013-12-20 09:54:00,59.0,56.0,-100.00,SSW,200,14.0,16.0,91,-99.99,,,-99.99,,2013-12-20 15:54:00,
2013-12-20 10:23:00,60.0,56.0,-100.00,South,175,12.0,18.0,89,-99.99,,,-99.99,,2013-12-20 16:23:00,
2013-12-20 10:33:00,60.0,56.0,-100.00,South,175,12.0,18.0,89,-99.99,,,-99.99,,2013-12-20 16:33:00,
2013-12-20 10:53:00,60.0,56.0,-100.00,South,185,14.0,19.0,87,-99.99,,,-99.99,,2013-12-20 16:53:00,
2013-12-20 11:22:00,61.0,57.0,-100.00,South,180,12.0,16.0,87,-99.99,,,-99.99,,2013-12-20 17:22:00,
2013-12-20 11:52:00,61.0,57.0,-100.00,South,190,14.0,18.0,85,-99.99,,,-99.99,,2013-12-20 17:52:00,
2013-12-20 12:22:00,62.0,57.0,-100.00,SSW,195,11.0,16.0,83,-99.99,,,-99.99,,2013-12-20 18:22:00,
2013-12-20 12:52:00,64.0,57.0,-100.00,South,180,12.0,18.0,79,-99.99,,,-99.99,,2013-12-20 18:52:00,
2013-12-20 13:22:00,65.0,57.0,-100.00,South,185,21.0,26.0,76,-99.99,,,-99.99,,2013-12-20 19:22:00,
2013-12-20 13:32:00,65.0,57.0,-100.00,South,185,21.0,26.0,76,-99.99,,,-99.99,,2013-12-20 19:32:00,
2013-12-20 13:52:00,65.0,56.0,-100.00,South,190,16.0,21.0,75,-99.99,,,-99.99,,2013-12-20 19:52:00,
2013-12-20 14:22:00,65.0,57.0,-100.00,South,185,18.0,25.0,75,-99.99,,,-99.99,,2013-12-20 20:22:00,
2013-12-20 14:52:00,65.0,56.0,-100.00,South,185,17.0,21.0,73,-99.99,,,-99.99,,2013-12-20 20:52:00,
2013-12-20 15:22:00,65.0,56.0,-100.00,SSW,200,19.0,24.0,73,-99.99,,,-99.99,,2013-12-20 21:22:00,
2013-12-20 15:53:00,64.0,57.0,-100.00,South,190,11.0,18.0,76,-99.99,,,-99.99,,2013-12-20 21:53:00,
2013-12-20 16:23:00,63.0,57.0,-100.00,West,265,4.0,9.0,80,-99.99,,,-99.99,,2013-12-20 22:23:00,
2013-12-20 16:53:00,61.0,53.0,-100.00,West,280,12.0,16.0,75,-99.99,,,-99.99,,2013-12-20 22:53:00,
2013-12-20 17:22:00,56.0,48.0,-100.00,West,265,10.0,12.0,74,-99.99,,,-99.99,,2013-12-20 23:22:00,
2013-12-20 17:53:00,52.0,45.0,-100.00,WNW,285,3.0,6.0,78,-99.99,,,-99.99,,2013-12-20 23:53:00,
2013-12-20 18:22:00,49.0,42.0,-100.00,WNW,285,10.0,14.0,79,-99.99,,,-99.99,,2013-12-21 00:22:00,
2013-12-20 18:52:00,47.0,41.0,-100.00,WSW,255,12.0,16.0,78,-99.99,,,-99.99,,2013-12-21 00:52:00,
2013-12-20 19:22:00,44.0,42.0,-100.00,WSW,250,3.0,6.0,91,-99.99,,,-99.99,,2013-12-21 01:22:00,
2013-12-20 19:52:00,44.0,42.0,-100.00,NW,320,3.0,6.0,93,-99.99,,,-99.99,,2013-12-21 01:52:00,
2013-12-20 20:21:00,42.0,41.0,-100.00,WNW,295,6.0,10.0,96,-99.99,,,-99.99,,2013-12-21 02:21:00,
2013-12-20 20:52:00,41.0,40.0,-100.00,NW,305,4.0,4.0,97,-99.99,,,-99.99,,2013-12-21 02:52:00,
2013-12-20 21:22:00,41.0,40.0,-100.00,NW,320,4.0,6.0,98,-99.99,,,-99.99,,2013-12-21 03:22:00,
2013-12-20 21:53:00,40.0,39.0,-100.00,WNW,300,3.0,6.0,98,-99.99,,,-99.99,,2013-12-21 03:53:00,
2013-12-20 22:23:00,39.0,39.0,-100.00,NW,325,4.0,8.0,97,-99.99,,,-99.99,,2013-12-21 04:23:00,
2013-12-20 22:52:00,39.0,38.0,-100.00,North,0,4.0,6.0,97,-99.99,,,-99.99,,2013-12-21 04:52:00,
2013-12-20 23:22:00,39.0,38.0,-100.00,WNW,295,3.0,6.0,97,-99.99,,,-99.99,,2013-12-21 05:22:00,
2013-12-20 23:52:00,38.0,37.0,-100.00,NNW,335,3.0,4.0,98,-99.99,,,-99.99,,2013-12-21 05:52:00,